Dunsford, Canada
Current Conditions -  °F | °C
As of 8:00 AM on Monday 22 Dec 2014 (Local Time) from CYPQ Reporting Station
Haze Haze  
Wind Chill: 16°   Ceiling: 2100
Heat Index: 25°   Visibility: 3mi
Dew Point: 25°   Wind: 8mph
Humidity: 100%   Direction: 90°E
Pressure: 30.25"   Gusts: NA
Location:  44.45°N, 78.63°W
Report Text: CYPQ 221300Z AUTO 09007KT 050V110 3SM BR OVC021 M04/M04 A3025 RMK SLP252
Loading
Personal Weather Stations






























Interactive Weather Map New forecast layout! Learn more

10-Day Weather Forecast

Advertisements
Track Severe Weather on mobile